Terminal Aerodrome Forecast
Issued by NWS Boise, ID

Home | Current Version | Previous Version | Text Only | Print | Product List | Glossary On
Versions: 1 2 3 4 5 6 7 8 9 10 11 12 13 14 15
000
FTUS45 KBOI 231724
TAFBNO
TAF
KBNO 231724Z 2318/2418 24012G22KT P6SM SCT040 BKN060
     FM240300 22006KT P6SM VCSH SCT025 OVC040
     FM240600 22006KT P6SM -RA SCT015 OVC025=

USA.gov is the U.S. government's official web portal to all federal, state and local government web resources and services.